TimeCDT,TemperatureF,Dew PointF,Humidity,Sea Level PressureIn,VisibilityMPH,Wind Direction,Wind SpeedMPH,Gust SpeedMPH,PrecipitationIn,Events,Conditions,WindDirDegrees,DateUTC
12:15 AM,60.8,51.8,72,29.71,10.0,South,15.0,-,N/A,,Clear,190,2013-10-01 05:15:00
12:35 AM,60.8,51.8,72,29.71,10.0,South,15.0,-,N/A,,Clear,190,2013-10-01 05:35:00
12:55 AM,60.8,51.8,72,29.72,10.0,South,15.0,-,N/A,,Clear,190,2013-10-01 05:55:00
1:15 AM,59.0,51.8,77,29.71,10.0,South,13.8,-,N/A,,Clear,190,2013-10-01 06:15:00
1:35 AM,59.0,51.8,77,29.71,10.0,South,13.8,-,N/A,,Clear,190,2013-10-01 06:35:00
1:55 AM,59.0,51.8,77,29.72,10.0,South,15.0,-,N/A,,Clear,190,2013-10-01 06:55:00
2:15 AM,59.0,51.8,77,29.72,10.0,South,13.8,-,N/A,,Clear,190,2013-10-01 07:15:00
2:35 AM,57.2,51.8,82,29.72,10.0,South,15.0,-,N/A,,Clear,190,2013-10-01 07:35:00
2:55 AM,57.2,50.0,77,29.71,10.0,South,13.8,-,N/A,,Clear,190,2013-10-01 07:55:00
3:15 AM,57.2,50.0,77,29.73,10.0,SSW,12.7,-,N/A,,Clear,200,2013-10-01 08:15:00
3:35 AM,55.4,50.0,82,29.73,10.0,SSW,12.7,-,N/A,,Clear,200,2013-10-01 08:35:00
3:55 AM,59.0,51.8,77,29.73,10.0,SSW,12.7,-,N/A,,Clear,210,2013-10-01 08:55:00
4:15 AM,60.8,51.8,72,29.73,10.0,SSW,13.8,-,N/A,,Clear,210,2013-10-01 09:15:00
4:35 AM,59.0,51.8,77,29.72,10.0,SSW,15.0,-,N/A,,Clear,210,2013-10-01 09:35:00
4:55 AM,59.0,51.8,77,29.73,10.0,SSW,15.0,-,N/A,,Clear,210,2013-10-01 09:55:00
5:15 AM,59.0,51.8,77,29.73,10.0,SSW,12.7,-,N/A,,Clear,210,2013-10-01 10:15:00
5:35 AM,59.0,51.8,77,29.74,10.0,SSW,12.7,18.4,N/A,,Clear,210,2013-10-01 10:35:00
5:55 AM,59.0,51.8,77,29.76,10.0,SW,9.2,-,N/A,,Clear,220,2013-10-01 10:55:00
6:15 AM,57.2,51.8,82,29.77,10.0,SW,8.1,-,N/A,,Clear,220,2013-10-01 11:15:00
6:35 AM,57.2,51.8,82,29.78,10.0,SW,9.2,-,N/A,,Clear,220,2013-10-01 11:35:00
6:55 AM,59.0,51.8,77,29.79,10.0,SW,8.1,-,N/A,,Clear,230,2013-10-01 11:55:00
7:15 AM,57.2,51.8,82,29.80,10.0,SW,6.9,-,N/A,,Clear,230,2013-10-01 12:15:00
7:35 AM,57.2,51.8,82,29.82,10.0,WSW,9.2,-,N/A,,Clear,250,2013-10-01 12:35:00
7:55 AM,59.0,53.6,82,29.82,10.0,West,8.1,-,N/A,,Clear,270,2013-10-01 12:55:00
8:15 AM,60.8,53.6,77,29.84,10.0,WNW,9.2,-,N/A,,Clear,290,2013-10-01 13:15:00
8:35 AM,62.6,51.8,68,29.85,10.0,NW,9.2,-,N/A,,Clear,320,2013-10-01 13:35:00
8:55 AM,64.4,51.8,64,29.85,10.0,NNW,10.4,-,N/A,,Clear,330,2013-10-01 13:55:00
9:15 AM,64.4,48.2,56,29.86,10.0,NNW,13.8,-,N/A,,Clear,330,2013-10-01 14:15:00
9:35 AM,64.4,46.4,52,29.87,10.0,NNW,13.8,-,N/A,,Clear,340,2013-10-01 14:35:00
9:55 AM,66.2,46.4,49,29.88,10.0,NNW,13.8,19.6,N/A,,Clear,340,2013-10-01 14:55:00
10:15 AM,66.2,46.4,49,29.89,10.0,NNW,10.4,18.4,N/A,,Clear,340,2013-10-01 15:15:00
10:35 AM,66.2,46.4,49,29.90,10.0,North,10.4,-,N/A,,Clear,350,2013-10-01 15:35:00
10:55 AM,68.0,46.4,46,29.90,10.0,North,10.4,19.6,N/A,,Clear,360,2013-10-01 15:55:00
11:15 AM,69.8,46.4,43,29.91,10.0,Variable,6.9,17.3,N/A,,Clear,0,2013-10-01 16:15:00
11:35 AM,69.8,44.6,40,29.92,10.0,North,11.5,-,N/A,,Clear,10,2013-10-01 16:35:00
11:55 AM,69.8,42.8,38,29.92,10.0,North,9.2,16.1,N/A,,Clear,350,2013-10-01 16:55:00
12:15 PM,71.6,41.0,33,29.92,10.0,North,10.4,-,N/A,,Clear,360,2013-10-01 17:15:00
12:35 PM,71.6,41.0,33,29.92,10.0,NNE,8.1,-,N/A,,Clear,30,2013-10-01 17:35:00
12:55 PM,73.4,39.2,29,29.93,10.0,Variable,4.6,11.5,N/A,,Clear,0,2013-10-01 17:55:00
1:15 PM,73.4,37.4,27,29.93,10.0,NNW,6.9,-,N/A,,Clear,340,2013-10-01 18:15:00
1:35 PM,75.2,35.6,24,29.93,10.0,NNE,5.8,13.8,N/A,,Clear,30,2013-10-01 18:35:00
1:55 PM,75.2,33.8,22,29.93,10.0,Variable,6.9,-,N/A,,Clear,0,2013-10-01 18:55:00
2:15 PM,77.0,33.8,21,29.93,10.0,North,4.6,-,N/A,,Clear,360,2013-10-01 19:15:00
2:35 PM,77.0,32.0,19,29.93,10.0,NW,9.2,-,N/A,,Clear,320,2013-10-01 19:35:00
2:55 PM,77.0,32.0,19,29.93,10.0,NNW,8.1,13.8,N/A,,Clear,340,2013-10-01 19:55:00
3:15 PM,78.8,30.2,17,29.93,10.0,NNW,6.9,-,N/A,,Clear,340,2013-10-01 20:15:00
3:35 PM,78.8,30.2,17,29.93,10.0,North,6.9,13.8,N/A,,Clear,350,2013-10-01 20:35:00
3:55 PM,78.8,30.2,17,29.93,10.0,Variable,6.9,-,N/A,,Clear,0,2013-10-01 20:55:00
4:15 PM,78.8,28.4,16,29.93,-9999.0,NNW,10.4,-,N/A,,Clear,330,2013-10-01 21:15:00
4:35 PM,78.8,30.2,17,29.93,10.0,NW,4.6,-,N/A,,Clear,320,2013-10-01 21:35:00
4:55 PM,77.0,28.4,17,29.94,10.0,NNW,6.9,-,N/A,,Clear,330,2013-10-01 21:55:00
5:15 PM,77.0,28.4,17,29.94,10.0,NNW,6.9,12.7,N/A,,Clear,340,2013-10-01 22:15:00
5:35 PM,77.0,30.2,18,29.94,10.0,NNW,6.9,-,N/A,,Clear,340,2013-10-01 22:35:00
5:55 PM,77.0,32.0,19,29.94,10.0,Calm,Calm,-,N/A,,Clear,0,2013-10-01 22:55:00
6:15 PM,73.4,35.6,25,29.94,9.0,Calm,Calm,-,N/A,,Clear,0,2013-10-01 23:15:00
6:35 PM,71.6,35.6,27,29.95,10.0,ENE,3.5,-,N/A,,Clear,60,2013-10-01 23:35:00
6:55 PM,68.0,37.4,33,29.95,10.0,ENE,4.6,-,N/A,,Clear,60,2013-10-01 23:55:00
7:15 PM,66.2,37.4,35,29.95,8.0,Calm,Calm,-,N/A,,Clear,0,2013-10-02 00:15:00
7:35 PM,66.2,37.4,35,29.95,7.0,Calm,Calm,-,N/A,,Clear,0,2013-10-02 00:35:00
7:55 PM,66.2,37.4,35,29.96,10.0,Calm,Calm,-,N/A,,Clear,0,2013-10-02 00:55:00
8:15 PM,60.8,42.8,52,29.96,10.0,Calm,Calm,-,N/A,,Clear,0,2013-10-02 01:15:00
8:35 PM,59.0,44.6,59,29.97,10.0,Calm,Calm,-,N/A,,Clear,0,2013-10-02 01:35:00
8:55 PM,60.8,42.8,52,29.97,10.0,Calm,Calm,-,N/A,,Clear,0,2013-10-02 01:55:00
9:15 PM,57.2,44.6,63,29.97,10.0,Calm,Calm,-,N/A,,Clear,0,2013-10-02 02:15:00
9:35 PM,57.2,44.6,63,29.98,10.0,Calm,Calm,-,N/A,,Clear,0,2013-10-02 02:35:00
9:55 PM,57.2,44.6,63,29.98,10.0,Calm,Calm,-,N/A,,Clear,0,2013-10-02 02:55:00
10:15 PM,55.4,42.8,63,29.99,10.0,Calm,Calm,-,N/A,,Clear,0,2013-10-02 03:15:00
10:35 PM,53.6,42.8,67,29.99,10.0,Calm,Calm,-,N/A,,Clear,0,2013-10-02 03:35:00
10:55 PM,53.6,42.8,67,30.00,10.0,Calm,Calm,-,N/A,,Clear,0,2013-10-02 03:55:00
11:15 PM,53.6,41.0,62,30.00,10.0,Calm,Calm,-,N/A,,Clear,0,2013-10-02 04:15:00
11:35 PM,53.6,41.0,62,30.00,10.0,NNE,5.8,-,N/A,,Clear,30,2013-10-02 04:35:00
11:55 PM,51.8,42.8,71,30.00,10.0,Calm,Calm,-,N/A,,Clear,0,2013-10-02 04:55:00